sensor_id;sensor_type;location;lat;lon;timestamp;P1;durP1;ratioP1;P2;durP2;ratioP2
29200;SDS011;16244;51.956;12.980;2023-04-24T00:01:30;7.10;;;6.70;;
29200;SDS011;16244;51.956;12.980;2023-04-24T00:03:58;7.57;;;7.10;;
29200;SDS011;16244;51.956;12.980;2023-04-24T00:06:27;7.27;;;6.87;;
29200;SDS011;16244;51.956;12.980;2023-04-24T00:08:59;7.60;;;7.10;;
29200;SDS011;16244;51.956;12.980;2023-04-24T00:11:27;7.43;;;7.07;;
29200;SDS011;16244;51.956;12.980;2023-04-24T00:13:54;7.70;;;7.33;;
29200;SDS011;16244;51.956;12.980;2023-04-24T00:16:22;8.07;;;7.60;;
29200;SDS011;16244;51.956;12.980;2023-04-24T00:18:50;6.37;;;6.00;;
29200;SDS011;16244;51.956;12.980;2023-04-24T00:21:18;7.17;;;6.67;;
29200;SDS011;16244;51.956;12.980;2023-04-24T00:23:47;8.50;;;7.70;;
29200;SDS011;16244;51.956;12.980;2023-04-24T00:26:15;7.13;;;6.63;;
29200;SDS011;16244;51.956;12.980;2023-04-24T00:28:43;7.53;;;7.03;;
29200;SDS011;16244;51.956;12.980;2023-04-24T00:31:11;8.53;;;6.90;;
29200;SDS011;16244;51.956;12.980;2023-04-24T00:33:39;7.00;;;6.67;;
29200;SDS011;16244;51.956;12.980;2023-04-24T00:36:07;7.67;;;7.17;;
29200;SDS011;16244;51.956;12.980;2023-04-24T00:38:34;6.57;;;6.30;;
29200;SDS011;16244;51.956;12.980;2023-04-24T00:41:03;7.00;;;6.60;;
29200;SDS011;16244;51.956;12.980;2023-04-24T00:43:31;6.80;;;6.60;;
29200;SDS011;16244;51.956;12.980;2023-04-24T00:45:58;8.40;;;7.67;;
29200;SDS011;16244;51.956;12.980;2023-04-24T00:48:27;6.37;;;6.03;;
29200;SDS011;16244;51.956;12.980;2023-04-24T00:50:55;7.23;;;6.87;;
29200;SDS011;16244;51.956;12.980;2023-04-24T00:53:23;7.07;;;6.67;;
29200;SDS011;16244;51.956;12.980;2023-04-24T00:55:50;6.00;;;5.80;;
29200;SDS011;16244;51.956;12.980;2023-04-24T00:58:20;7.60;;;7.10;;
29200;SDS011;16244;51.956;12.980;2023-04-24T01:00:47;7.07;;;6.73;;
29200;SDS011;16244;51.956;12.980;2023-04-24T01:03:18;7.47;;;7.07;;
29200;SDS011;16244;51.956;12.980;2023-04-24T01:05:48;7.53;;;7.10;;
29200;SDS011;16244;51.956;12.980;2023-04-24T01:08:16;6.73;;;6.43;;
29200;SDS011;16244;51.956;12.980;2023-04-24T01:10:44;8.27;;;6.87;;
29200;SDS011;16244;51.956;12.980;2023-04-24T01:13:12;7.67;;;7.17;;
29200;SDS011;16244;51.956;12.980;2023-04-24T01:15:41;6.10;;;5.80;;
29200;SDS011;16244;51.956;12.980;2023-04-24T01:18:09;6.23;;;6.00;;
29200;SDS011;16244;51.956;12.980;2023-04-24T01:20:37;7.10;;;6.40;;
29200;SDS011;16244;51.956;12.980;2023-04-24T01:23:08;6.47;;;6.07;;
29200;SDS011;16244;51.956;12.980;2023-04-24T01:25:40;5.97;;;5.67;;
29200;SDS011;16244;51.956;12.980;2023-04-24T01:28:07;7.27;;;6.77;;
29200;SDS011;16244;51.956;12.980;2023-04-24T01:30:35;6.47;;;6.17;;
29200;SDS011;16244;51.956;12.980;2023-04-24T01:33:03;7.10;;;6.50;;
29200;SDS011;16244;51.956;12.980;2023-04-24T01:35:31;6.43;;;6.13;;
29200;SDS011;16244;51.956;12.980;2023-04-24T01:37:58;5.87;;;5.67;;
29200;SDS011;16244;51.956;12.980;2023-04-24T01:40:27;5.70;;;5.50;;
29200;SDS011;16244;51.956;12.980;2023-04-24T01:42:55;7.73;;;6.33;;
29200;SDS011;16244;51.956;12.980;2023-04-24T01:45:24;6.63;;;6.37;;
29200;SDS011;16244;51.956;12.980;2023-04-24T01:47:52;5.50;;;5.30;;
29200;SDS011;16244;51.956;12.980;2023-04-24T01:50:20;6.10;;;5.90;;
29200;SDS011;16244;51.956;12.980;2023-04-24T01:52:48;6.73;;;6.33;;
29200;SDS011;16244;51.956;12.980;2023-04-24T01:55:15;6.23;;;5.93;;
29200;SDS011;16244;51.956;12.980;2023-04-24T01:57:45;5.90;;;5.70;;
29200;SDS011;16244;51.956;12.980;2023-04-24T02:00:13;6.20;;;5.90;;
29200;SDS011;16244;51.956;12.980;2023-04-24T02:02:40;5.83;;;5.53;;
29200;SDS011;16244;51.956;12.980;2023-04-24T02:05:09;6.30;;;6.07;;
29200;SDS011;16244;51.956;12.980;2023-04-24T02:07:36;6.10;;;5.80;;
29200;SDS011;16244;51.956;12.980;2023-04-24T02:10:04;5.77;;;5.50;;
29200;SDS011;16244;51.956;12.980;2023-04-24T02:12:32;5.27;;;5.17;;
29200;SDS011;16244;51.956;12.980;2023-04-24T02:15:02;6.40;;;6.10;;
29200;SDS011;16244;51.956;12.980;2023-04-24T02:17:30;5.40;;;5.13;;
29200;SDS011;16244;51.956;12.980;2023-04-24T02:19:57;5.63;;;5.23;;
29200;SDS011;16244;51.956;12.980;2023-04-24T02:22:25;5.20;;;5.00;;
29200;SDS011;16244;51.956;12.980;2023-04-24T02:24:53;4.70;;;4.60;;
29200;SDS011;16244;51.956;12.980;2023-04-24T02:27:20;4.93;;;4.80;;
29200;SDS011;16244;51.956;12.980;2023-04-24T02:29:48;5.43;;;5.23;;
29200;SDS011;16244;51.956;12.980;2023-04-24T02:32:17;4.93;;;4.73;;
29200;SDS011;16244;51.956;12.980;2023-04-24T02:34:46;5.10;;;4.80;;
29200;SDS011;16244;51.956;12.980;2023-04-24T02:37:17;4.67;;;4.47;;
29200;SDS011;16244;51.956;12.980;2023-04-24T02:39:45;4.80;;;4.60;;
29200;SDS011;16244;51.956;12.980;2023-04-24T02:42:12;4.60;;;4.20;;
29200;SDS011;16244;51.956;12.980;2023-04-24T02:44:41;4.87;;;4.53;;
29200;SDS011;16244;51.956;12.980;2023-04-24T02:47:09;4.60;;;4.40;;
29200;SDS011;16244;51.956;12.980;2023-04-24T02:49:37;4.30;;;4.20;;
29200;SDS011;16244;51.956;12.980;2023-04-24T02:52:05;4.30;;;4.20;;
29200;SDS011;16244;51.956;12.980;2023-04-24T02:54:32;3.50;;;3.40;;
29200;SDS011;16244;51.956;12.980;2023-04-24T02:57:00;3.80;;;3.60;;
29200;SDS011;16244;51.956;12.980;2023-04-24T02:59:28;4.40;;;4.20;;
29200;SDS011;16244;51.956;12.980;2023-04-24T03:01:55;3.33;;;3.10;;
29200;SDS011;16244;51.956;12.980;2023-04-24T03:04:23;5.77;;;4.37;;
29200;SDS011;16244;51.956;12.980;2023-04-24T03:06:53;3.20;;;3.10;;
29200;SDS011;16244;51.956;12.980;2023-04-24T03:09:22;3.93;;;3.60;;
29200;SDS011;16244;51.956;12.980;2023-04-24T03:11:49;3.40;;;3.30;;
29200;SDS011;16244;51.956;12.980;2023-04-24T03:14:17;3.50;;;3.30;;
29200;SDS011;16244;51.956;12.980;2023-04-24T03:16:49;3.20;;;2.90;;
29200;SDS011;16244;51.956;12.980;2023-04-24T03:19:22;3.47;;;3.37;;
29200;SDS011;16244;51.956;12.980;2023-04-24T03:21:51;3.50;;;3.40;;
29200;SDS011;16244;51.956;12.980;2023-04-24T03:24:20;3.17;;;3.07;;
29200;SDS011;16244;51.956;12.980;2023-04-24T03:26:48;2.70;;;2.60;;
29200;SDS011;16244;51.956;12.980;2023-04-24T03:29:16;2.93;;;2.93;;
29200;SDS011;16244;51.956;12.980;2023-04-24T03:31:43;2.67;;;2.50;;
29200;SDS011;16244;51.956;12.980;2023-04-24T03:34:11;2.63;;;2.33;;
29200;SDS011;16244;51.956;12.980;2023-04-24T03:36:39;3.43;;;2.10;;
29200;SDS011;16244;51.956;12.980;2023-04-24T03:39:06;7.70;;;2.27;;
29200;SDS011;16244;51.956;12.980;2023-04-24T03:41:36;1.93;;;1.93;;
29200;SDS011;16244;51.956;12.980;2023-04-24T03:44:03;1.57;;;1.57;;
29200;SDS011;16244;51.956;12.980;2023-04-24T03:46:31;2.60;;;2.60;;
29200;SDS011;16244;51.956;12.980;2023-04-24T03:48:58;7.57;;;6.97;;
29200;SDS011;16244;51.956;12.980;2023-04-24T03:51:25;5.27;;;2.27;;
29200;SDS011;16244;51.956;12.980;2023-04-24T03:53:56;2.00;;;1.80;;
29200;SDS011;16244;51.956;12.980;2023-04-24T03:56:23;3.90;;;1.60;;
29200;SDS011;16244;51.956;12.980;2023-04-24T03:58:52;1.67;;;1.30;;
29200;SDS011;16244;51.956;12.980;2023-04-24T04:01:20;1.10;;;1.10;;
29200;SDS011;16244;51.956;12.980;2023-04-24T04:03:48;1.10;;;1.10;;
29200;SDS011;16244;51.956;12.980;2023-04-24T04:06:16;1.37;;;1.20;;
29200;SDS011;16244;51.956;12.980;2023-04-24T04:08:45;2.00;;;1.70;;
29200;SDS011;16244;51.956;12.980;2023-04-24T04:11:12;1.77;;;1.67;;
29200;SDS011;16244;51.956;12.980;2023-04-24T04:13:40;1.40;;;1.30;;
29200;SDS011;16244;51.956;12.980;2023-04-24T04:16:09;1.00;;;1.00;;
29200;SDS011;16244;51.956;12.980;2023-04-24T04:18:37;2.10;;;1.77;;
29200;SDS011;16244;51.956;12.980;2023-04-24T04:21:04;1.00;;;1.00;;
29200;SDS011;16244;51.956;12.980;2023-04-24T04:23:32;0.90;;;0.90;;
29200;SDS011;16244;51.956;12.980;2023-04-24T04:25:59;0.90;;;0.90;;
29200;SDS011;16244;51.956;12.980;2023-04-24T04:28:29;0.83;;;0.83;;
29200;SDS011;16244;51.956;12.980;2023-04-24T04:30:58;10.57;;;9.13;;
29200;SDS011;16244;51.956;12.980;2023-04-24T04:33:29;2.67;;;2.57;;
29200;SDS011;16244;51.956;12.980;2023-04-24T04:35:57;1.87;;;1.77;;
29200;SDS011;16244;51.956;12.980;2023-04-24T04:38:25;2.97;;;1.57;;
29200;SDS011;16244;51.956;12.980;2023-04-24T04:40:55;1.70;;;1.60;;
29200;SDS011;16244;51.956;12.980;2023-04-24T04:43:24;5.70;;;5.20;;
29200;SDS011;16244;51.956;12.980;2023-04-24T04:45:52;2.23;;;2.13;;
29200;SDS011;16244;51.956;12.980;2023-04-24T04:48:20;5.47;;;4.60;;
29200;SDS011;16244;51.956;12.980;2023-04-24T04:50:49;10.73;;;6.50;;
29200;SDS011;16244;51.956;12.980;2023-04-24T04:53:16;9.33;;;4.50;;
29200;SDS011;16244;51.956;12.980;2023-04-24T04:55:44;1.63;;;1.53;;
29200;SDS011;16244;51.956;12.980;2023-04-24T04:58:13;1.90;;;0.70;;
29200;SDS011;16244;51.956;12.980;2023-04-24T05:00:41;3.03;;;2.27;;
29200;SDS011;16244;51.956;12.980;2023-04-24T05:03:09;4.80;;;3.63;;
29200;SDS011;16244;51.956;12.980;2023-04-24T05:05:36;0.90;;;0.90;;
29200;SDS011;16244;51.956;12.980;2023-04-24T05:08:07;2.67;;;2.67;;
29200;SDS011;16244;51.956;12.980;2023-04-24T05:10:36;1.43;;;1.43;;
29200;SDS011;16244;51.956;12.980;2023-04-24T05:13:03;4.07;;;3.67;;
29200;SDS011;16244;51.956;12.980;2023-04-24T05:15:39;1.50;;;1.50;;
29200;SDS011;16244;51.956;12.980;2023-04-24T05:18:06;1.80;;;1.10;;
29200;SDS011;16244;51.956;12.980;2023-04-24T05:20:34;0.70;;;0.70;;
29200;SDS011;16244;51.956;12.980;2023-04-24T05:23:01;1.23;;;0.80;;
29200;SDS011;16244;51.956;12.980;2023-04-24T05:25:30;1.93;;;1.70;;
29200;SDS011;16244;51.956;12.980;2023-04-24T05:28:01;7.03;;;6.53;;
29200;SDS011;16244;51.956;12.980;2023-04-24T05:30:28;7.00;;;6.40;;
29200;SDS011;16244;51.956;12.980;2023-04-24T05:32:56;7.43;;;6.70;;
29200;SDS011;16244;51.956;12.980;2023-04-24T05:35:24;2.90;;;2.80;;
29200;SDS011;16244;51.956;12.980;2023-04-24T05:37:52;1.80;;;1.80;;
29200;SDS011;16244;51.956;12.980;2023-04-24T05:40:20;0.90;;;0.90;;
29200;SDS011;16244;51.956;12.980;2023-04-24T05:42:49;2.70;;;0.93;;
29200;SDS011;16244;51.956;12.980;2023-04-24T05:45:16;0.80;;;0.80;;
29200;SDS011;16244;51.956;12.980;2023-04-24T05:47:44;1.20;;;1.10;;
29200;SDS011;16244;51.956;12.980;2023-04-24T05:50:11;1.40;;;1.40;;
29200;SDS011;16244;51.956;12.980;2023-04-24T05:52:41;2.17;;;1.40;;
29200;SDS011;16244;51.956;12.980;2023-04-24T05:55:09;1.00;;;1.00;;
29200;SDS011;16244;51.956;12.980;2023-04-24T05:57:37;0.77;;;0.77;;
29200;SDS011;16244;51.956;12.980;2023-04-24T06:00:07;0.80;;;0.80;;
29200;SDS011;16244;51.956;12.980;2023-04-24T06:02:40;3.20;;;0.80;;
29200;SDS011;16244;51.956;12.980;2023-04-24T06:05:08;1.27;;;0.80;;
29200;SDS011;16244;51.956;12.980;2023-04-24T06:07:37;0.70;;;0.70;;
29200;SDS011;16244;51.956;12.980;2023-04-24T06:10:04;1.10;;;0.70;;
29200;SDS011;16244;51.956;12.980;2023-04-24T06:12:32;3.90;;;0.77;;
29200;SDS011;16244;51.956;12.980;2023-04-24T06:15:00;4.30;;;0.63;;
29200;SDS011;16244;51.956;12.980;2023-04-24T06:17:29;0.53;;;0.53;;
29200;SDS011;16244;51.956;12.980;2023-04-24T06:19:58;0.60;;;0.60;;
29200;SDS011;16244;51.956;12.980;2023-04-24T06:22:25;0.67;;;0.50;;
29200;SDS011;16244;51.956;12.980;2023-04-24T06:24:55;0.50;;;0.50;;
29200;SDS011;16244;51.956;12.980;2023-04-24T06:27:23;0.60;;;0.60;;
29200;SDS011;16244;51.956;12.980;2023-04-24T06:29:50;0.50;;;0.50;;
29200;SDS011;16244;51.956;12.980;2023-04-24T06:32:20;1.63;;;0.70;;
29200;SDS011;16244;51.956;12.980;2023-04-24T06:34:50;0.53;;;0.53;;
29200;SDS011;16244;51.956;12.980;2023-04-24T06:37:18;4.03;;;0.60;;
29200;SDS011;16244;51.956;12.980;2023-04-24T06:39:47;1.07;;;0.60;;
29200;SDS011;16244;51.956;12.980;2023-04-24T06:42:14;0.60;;;0.60;;
29200;SDS011;16244;51.956;12.980;2023-04-24T06:44:42;0.60;;;0.60;;
29200;SDS011;16244;51.956;12.980;2023-04-24T06:47:10;2.10;;;1.00;;
29200;SDS011;16244;51.956;12.980;2023-04-24T06:49:39;0.53;;;0.50;;
29200;SDS011;16244;51.956;12.980;2023-04-24T06:52:08;0.60;;;0.60;;
29200;SDS011;16244;51.956;12.980;2023-04-24T06:54:36;0.60;;;0.60;;
29200;SDS011;16244;51.956;12.980;2023-04-24T06:57:03;1.40;;;0.60;;
29200;SDS011;16244;51.956;12.980;2023-04-24T06:59:31;1.63;;;0.60;;
29200;SDS011;16244;51.956;12.980;2023-04-24T07:01:59;0.60;;;0.60;;
29200;SDS011;16244;51.956;12.980;2023-04-24T07:04:27;0.77;;;0.50;;
29200;SDS011;16244;51.956;12.980;2023-04-24T07:06:55;2.00;;;1.17;;
29200;SDS011;16244;51.956;12.980;2023-04-24T07:09:27;0.90;;;0.90;;
29200;SDS011;16244;51.956;12.980;2023-04-24T07:11:54;1.03;;;0.70;;
29200;SDS011;16244;51.956;12.980;2023-04-24T07:14:23;0.60;;;0.60;;
29200;SDS011;16244;51.956;12.980;2023-04-24T07:16:50;0.57;;;0.57;;
29200;SDS011;16244;51.956;12.980;2023-04-24T07:19:18;0.50;;;0.50;;
29200;SDS011;16244;51.956;12.980;2023-04-24T07:21:45;1.57;;;1.00;;
29200;SDS011;16244;51.956;12.980;2023-04-24T07:24:13;0.60;;;0.60;;
29200;SDS011;16244;51.956;12.980;2023-04-24T07:26:42;0.60;;;0.53;;
29200;SDS011;16244;51.956;12.980;2023-04-24T07:29:12;0.87;;;0.50;;
29200;SDS011;16244;51.956;12.980;2023-04-24T07:31:40;3.03;;;0.60;;
29200;SDS011;16244;51.956;12.980;2023-04-24T07:34:07;1.00;;;0.60;;
29200;SDS011;16244;51.956;12.980;2023-04-24T07:36:35;0.60;;;0.60;;
29200;SDS011;16244;51.956;12.980;2023-04-24T07:39:04;0.50;;;0.50;;
29200;SDS011;16244;51.956;12.980;2023-04-24T07:41:31;0.80;;;0.50;;
29200;SDS011;16244;51.956;12.980;2023-04-24T07:44:00;0.50;;;0.50;;
29200;SDS011;16244;51.956;12.980;2023-04-24T07:46:28;0.50;;;0.50;;
29200;SDS011;16244;51.956;12.980;2023-04-24T07:48:57;0.50;;;0.40;;
29200;SDS011;16244;51.956;12.980;2023-04-24T07:51:27;0.50;;;0.50;;
29200;SDS011;16244;51.956;12.980;2023-04-24T07:53:54;0.40;;;0.40;;
29200;SDS011;16244;51.956;12.980;2023-04-24T07:56:22;0.50;;;0.50;;
29200;SDS011;16244;51.956;12.980;2023-04-24T07:58:50;0.70;;;0.50;;
29200;SDS011;16244;51.956;12.980;2023-04-24T08:01:21;0.60;;;0.60;;
29200;SDS011;16244;51.956;12.980;2023-04-24T08:03:49;2.20;;;0.50;;
29200;SDS011;16244;51.956;12.980;2023-04-24T08:06:17;6.53;;;0.50;;
29200;SDS011;16244;51.956;12.980;2023-04-24T08:08:46;0.77;;;0.77;;
29200;SDS011;16244;51.956;12.980;2023-04-24T08:11:18;0.50;;;0.50;;
29200;SDS011;16244;51.956;12.980;2023-04-24T08:13:46;3.10;;;0.50;;
29200;SDS011;16244;51.956;12.980;2023-04-24T08:16:17;1.70;;;0.60;;
29200;SDS011;16244;51.956;12.980;2023-04-24T08:18:46;1.00;;;0.50;;
29200;SDS011;16244;51.956;12.980;2023-04-24T08:21:15;0.50;;;0.50;;
29200;SDS011;16244;51.956;12.980;2023-04-24T08:23:45;0.70;;;0.50;;
29200;SDS011;16244;51.956;12.980;2023-04-24T08:26:14;2.27;;;0.63;;
29200;SDS011;16244;51.956;12.980;2023-04-24T08:28:43;0.60;;;0.60;;
29200;SDS011;16244;51.956;12.980;2023-04-24T08:31:11;0.90;;;0.90;;
29200;SDS011;16244;51.956;12.980;2023-04-24T08:33:40;0.50;;;0.50;;
29200;SDS011;16244;51.956;12.980;2023-04-24T08:36:16;1.73;;;0.50;;
29200;SDS011;16244;51.956;12.980;2023-04-24T08:38:45;0.50;;;0.50;;
29200;SDS011;16244;51.956;12.980;2023-04-24T08:41:13;0.40;;;0.40;;
29200;SDS011;16244;51.956;12.980;2023-04-24T08:43:42;1.63;;;0.40;;
29200;SDS011;16244;51.956;12.980;2023-04-24T08:46:10;1.80;;;0.47;;
29200;SDS011;16244;51.956;12.980;2023-04-24T08:48:39;0.63;;;0.40;;
29200;SDS011;16244;51.956;12.980;2023-04-24T08:51:07;0.50;;;0.50;;
29200;SDS011;16244;51.956;12.980;2023-04-24T08:53:38;5.30;;;0.50;;
29200;SDS011;16244;51.956;12.980;2023-04-24T08:56:07;0.60;;;0.57;;
29200;SDS011;16244;51.956;12.980;2023-04-24T08:58:36;0.50;;;0.50;;
29200;SDS011;16244;51.956;12.980;2023-04-24T09:01:06;0.70;;;0.50;;
29200;SDS011;16244;51.956;12.980;2023-04-24T09:03:34;0.47;;;0.47;;
29200;SDS011;16244;51.956;12.980;2023-04-24T09:06:06;1.20;;;0.60;;
29200;SDS011;16244;51.956;12.980;2023-04-24T09:08:38;0.57;;;0.57;;
29200;SDS011;16244;51.956;12.980;2023-04-24T09:11:09;0.70;;;0.40;;
29200;SDS011;16244;51.956;12.980;2023-04-24T09:13:38;1.27;;;0.97;;
29200;SDS011;16244;51.956;12.980;2023-04-24T09:16:06;1.57;;;0.70;;
29200;SDS011;16244;51.956;12.980;2023-04-24T09:18:34;0.50;;;0.50;;
29200;SDS011;16244;51.956;12.980;2023-04-24T09:21:02;2.93;;;0.57;;
29200;SDS011;16244;51.956;12.980;2023-04-24T09:23:34;2.30;;;0.60;;
29200;SDS011;16244;51.956;12.980;2023-04-24T09:26:04;0.60;;;0.60;;
29200;SDS011;16244;51.956;12.980;2023-04-24T09:28:34;0.50;;;0.50;;
29200;SDS011;16244;51.956;12.980;2023-04-24T09:31:06;3.37;;;0.50;;
29200;SDS011;16244;51.956;12.980;2023-04-24T09:33:37;0.70;;;0.70;;
29200;SDS011;16244;51.956;12.980;2023-04-24T09:36:05;0.50;;;0.50;;
29200;SDS011;16244;51.956;12.980;2023-04-24T09:38:34;0.40;;;0.40;;
29200;SDS011;16244;51.956;12.980;2023-04-24T09:41:05;0.53;;;0.53;;
29200;SDS011;16244;51.956;12.980;2023-04-24T09:43:34;0.80;;;0.47;;
29200;SDS011;16244;51.956;12.980;2023-04-24T09:46:07;0.50;;;0.50;;
29200;SDS011;16244;51.956;12.980;2023-04-24T09:48:39;1.13;;;1.00;;
29200;SDS011;16244;51.956;12.980;2023-04-24T09:51:07;0.40;;;0.40;;
29200;SDS011;16244;51.956;12.980;2023-04-24T09:53:36;2.10;;;0.73;;
29200;SDS011;16244;51.956;12.980;2023-04-24T09:56:08;0.50;;;0.50;;
29200;SDS011;16244;51.956;12.980;2023-04-24T09:58:38;0.63;;;0.50;;
29200;SDS011;16244;51.956;12.980;2023-04-24T10:01:06;0.60;;;0.40;;
29200;SDS011;16244;51.956;12.980;2023-04-24T10:03:34;1.30;;;0.50;;
29200;SDS011;16244;51.956;12.980;2023-04-24T10:06:03;1.63;;;0.50;;
29200;SDS011;16244;51.956;12.980;2023-04-24T10:08:35;0.50;;;0.50;;
29200;SDS011;16244;51.956;12.980;2023-04-24T10:11:03;0.70;;;0.50;;
29200;SDS011;16244;51.956;12.980;2023-04-24T10:13:32;0.50;;;0.50;;
29200;SDS011;16244;51.956;12.980;2023-04-24T10:16:01;0.50;;;0.43;;
29200;SDS011;16244;51.956;12.980;2023-04-24T10:18:30;1.07;;;0.60;;
29200;SDS011;16244;51.956;12.980;2023-04-24T10:21:00;1.77;;;0.60;;
29200;SDS011;16244;51.956;12.980;2023-04-24T10:23:28;3.53;;;0.63;;
29200;SDS011;16244;51.956;12.980;2023-04-24T10:25:57;0.70;;;0.70;;
29200;SDS011;16244;51.956;12.980;2023-04-24T10:28:27;0.50;;;0.50;;
29200;SDS011;16244;51.956;12.980;2023-04-24T10:30:59;0.60;;;0.60;;
29200;SDS011;16244;51.956;12.980;2023-04-24T10:33:27;0.53;;;0.53;;
29200;SDS011;16244;51.956;12.980;2023-04-24T10:35:57;0.50;;;0.50;;
29200;SDS011;16244;51.956;12.980;2023-04-24T10:38:25;0.90;;;0.80;;
29200;SDS011;16244;51.956;12.980;2023-04-24T10:40:57;0.50;;;0.50;;
29200;SDS011;16244;51.956;12.980;2023-04-24T10:43:34;1.50;;;0.60;;
29200;SDS011;16244;51.956;12.980;2023-04-24T10:46:04;0.50;;;0.50;;
29200;SDS011;16244;51.956;12.980;2023-04-24T10:48:33;0.77;;;0.50;;
29200;SDS011;16244;51.956;12.980;2023-04-24T10:51:04;1.77;;;0.50;;
29200;SDS011;16244;51.956;12.980;2023-04-24T10:53:31;1.33;;;0.50;;
29200;SDS011;16244;51.956;12.980;2023-04-24T10:56:03;1.03;;;0.40;;
29200;SDS011;16244;51.956;12.980;2023-04-24T10:58:35;0.43;;;0.43;;
29200;SDS011;16244;51.956;12.980;2023-04-24T11:01:13;0.40;;;0.40;;
29200;SDS011;16244;51.956;12.980;2023-04-24T11:03:54;0.50;;;0.50;;
29200;SDS011;16244;51.956;12.980;2023-04-24T11:06:28;0.53;;;0.53;;
29200;SDS011;16244;51.956;12.980;2023-04-24T11:09:01;0.40;;;0.40;;
29200;SDS011;16244;51.956;12.980;2023-04-24T11:11:31;4.67;;;0.50;;
29200;SDS011;16244;51.956;12.980;2023-04-24T11:14:01;9.30;;;1.47;;
29200;SDS011;16244;51.956;12.980;2023-04-24T11:16:35;2.00;;;0.40;;
29200;SDS011;16244;51.956;12.980;2023-04-24T11:19:07;0.50;;;0.40;;
29200;SDS011;16244;51.956;12.980;2023-04-24T11:21:39;0.50;;;0.50;;
29200;SDS011;16244;51.956;12.980;2023-04-24T11:24:24;0.60;;;0.60;;
29200;SDS011;16244;51.956;12.980;2023-04-24T11:26:57;0.60;;;0.50;;
29200;SDS011;16244;51.956;12.980;2023-04-24T11:29:40;2.10;;;0.40;;
29200;SDS011;16244;51.956;12.980;2023-04-24T11:32:22;1.03;;;0.50;;
29200;SDS011;16244;51.956;12.980;2023-04-24T11:34:54;2.20;;;0.60;;
29200;SDS011;16244;51.956;12.980;2023-04-24T11:37:23;3.23;;;0.50;;
29200;SDS011;16244;51.956;12.980;2023-04-24T11:39:52;0.50;;;0.50;;
29200;SDS011;16244;51.956;12.980;2023-04-24T11:42:22;3.53;;;0.60;;
29200;SDS011;16244;51.956;12.980;2023-04-24T11:44:51;2.90;;;0.40;;
29200;SDS011;16244;51.956;12.980;2023-04-24T11:47:28;0.60;;;0.50;;
29200;SDS011;16244;51.956;12.980;2023-04-24T11:49:57;0.53;;;0.50;;
29200;SDS011;16244;51.956;12.980;2023-04-24T11:52:25;0.40;;;0.40;;
29200;SDS011;16244;51.956;12.980;2023-04-24T11:54:53;0.50;;;0.40;;
29200;SDS011;16244;51.956;12.980;2023-04-24T11:57:23;7.50;;;0.80;;
29200;SDS011;16244;51.956;12.980;2023-04-24T11:59:59;0.60;;;0.60;;
29200;SDS011;16244;51.956;12.980;2023-04-24T12:02:26;3.07;;;2.87;;
29200;SDS011;16244;51.956;12.980;2023-04-24T12:04:56;2.10;;;1.30;;
29200;SDS011;16244;51.956;12.980;2023-04-24T12:07:23;1.10;;;0.50;;
29200;SDS011;16244;51.956;12.980;2023-04-24T12:09:55;0.60;;;0.60;;
29200;SDS011;16244;51.956;12.980;2023-04-24T12:12:24;0.50;;;0.50;;
29200;SDS011;16244;51.956;12.980;2023-04-24T12:14:53;0.83;;;0.60;;
29200;SDS011;16244;51.956;12.980;2023-04-24T12:17:25;1.07;;;0.50;;
29200;SDS011;16244;51.956;12.980;2023-04-24T12:19:58;0.40;;;0.40;;
29200;SDS011;16244;51.956;12.980;2023-04-24T12:22:28;0.60;;;0.60;;
29200;SDS011;16244;51.956;12.980;2023-04-24T12:25:09;2.10;;;0.60;;
29200;SDS011;16244;51.956;12.980;2023-04-24T12:27:39;1.07;;;0.50;;
29200;SDS011;16244;51.956;12.980;2023-04-24T12:30:10;0.60;;;0.50;;
29200;SDS011;16244;51.956;12.980;2023-04-24T12:32:43;7.10;;;0.80;;
29200;SDS011;16244;51.956;12.980;2023-04-24T12:35:13;2.53;;;0.70;;
29200;SDS011;16244;51.956;12.980;2023-04-24T12:37:46;2.27;;;0.60;;
29200;SDS011;16244;51.956;12.980;2023-04-24T12:40:14;2.80;;;0.60;;
29200;SDS011;16244;51.956;12.980;2023-04-24T12:42:42;0.50;;;0.50;;
29200;SDS011;16244;51.956;12.980;2023-04-24T12:45:11;0.50;;;0.50;;
29200;SDS011;16244;51.956;12.980;2023-04-24T12:47:40;2.67;;;0.50;;
29200;SDS011;16244;51.956;12.980;2023-04-24T12:50:09;0.50;;;0.50;;
29200;SDS011;16244;51.956;12.980;2023-04-24T12:52:39;0.50;;;0.50;;
29200;SDS011;16244;51.956;12.980;2023-04-24T12:55:07;0.63;;;0.60;;
29200;SDS011;16244;51.956;12.980;2023-04-24T12:57:36;0.97;;;0.50;;
29200;SDS011;16244;51.956;12.980;2023-04-24T13:00:06;0.50;;;0.50;;
29200;SDS011;16244;51.956;12.980;2023-04-24T13:02:37;2.00;;;0.50;;
29200;SDS011;16244;51.956;12.980;2023-04-24T13:05:06;0.50;;;0.50;;
29200;SDS011;16244;51.956;12.980;2023-04-24T13:07:38;0.83;;;0.70;;
29200;SDS011;16244;51.956;12.980;2023-04-24T13:10:07;2.60;;;0.47;;
29200;SDS011;16244;51.956;12.980;2023-04-24T13:12:35;0.60;;;0.60;;
29200;SDS011;16244;51.956;12.980;2023-04-24T13:15:05;0.50;;;0.50;;
29200;SDS011;16244;51.956;12.980;2023-04-24T13:17:34;0.50;;;0.50;;
29200;SDS011;16244;51.956;12.980;2023-04-24T13:20:01;11.73;;;1.17;;
29200;SDS011;16244;51.956;12.980;2023-04-24T13:22:30;1.23;;;1.23;;
29200;SDS011;16244;51.956;12.980;2023-04-24T13:25:00;1.47;;;1.47;;
29200;SDS011;16244;51.956;12.980;2023-04-24T13:27:28;0.47;;;0.47;;
29200;SDS011;16244;51.956;12.980;2023-04-24T13:29:56;1.70;;;1.03;;
29200;SDS011;16244;51.956;12.980;2023-04-24T13:32:24;2.83;;;1.23;;
29200;SDS011;16244;51.956;12.980;2023-04-24T13:34:53;1.33;;;0.60;;
29200;SDS011;16244;51.956;12.980;2023-04-24T13:37:20;0.90;;;0.70;;
29200;SDS011;16244;51.956;12.980;2023-04-24T13:39:48;0.97;;;0.97;;
29200;SDS011;16244;51.956;12.980;2023-04-24T13:42:18;1.00;;;1.00;;
29200;SDS011;16244;51.956;12.980;2023-04-24T13:44:47;0.60;;;0.60;;
29200;SDS011;16244;51.956;12.980;2023-04-24T13:47:15;4.93;;;0.77;;
29200;SDS011;16244;51.956;12.980;2023-04-24T13:49:42;0.60;;;0.60;;
29200;SDS011;16244;51.956;12.980;2023-04-24T13:52:10;1.60;;;1.60;;
29200;SDS011;16244;51.956;12.980;2023-04-24T13:54:39;0.70;;;0.70;;
29200;SDS011;16244;51.956;12.980;2023-04-24T13:57:07;0.97;;;0.97;;
29200;SDS011;16244;51.956;12.980;2023-04-24T13:59:36;1.47;;;0.73;;
29200;SDS011;16244;51.956;12.980;2023-04-24T14:02:03;2.20;;;0.60;;
29200;SDS011;16244;51.956;12.980;2023-04-24T14:04:31;1.73;;;0.50;;
29200;SDS011;16244;51.956;12.980;2023-04-24T14:06:58;1.47;;;0.43;;
29200;SDS011;16244;51.956;12.980;2023-04-24T14:09:27;0.80;;;0.80;;
29200;SDS011;16244;51.956;12.980;2023-04-24T14:11:54;1.90;;;0.60;;
29200;SDS011;16244;51.956;12.980;2023-04-24T14:14:22;1.17;;;0.60;;
29200;SDS011;16244;51.956;12.980;2023-04-24T14:16:51;1.80;;;0.50;;
29200;SDS011;16244;51.956;12.980;2023-04-24T14:19:19;0.80;;;0.60;;
29200;SDS011;16244;51.956;12.980;2023-04-24T14:21:47;1.83;;;0.60;;
29200;SDS011;16244;51.956;12.980;2023-04-24T14:24:16;0.50;;;0.50;;
29200;SDS011;16244;51.956;12.980;2023-04-24T14:26:44;0.50;;;0.50;;
29200;SDS011;16244;51.956;12.980;2023-04-24T14:29:12;4.80;;;0.80;;
29200;SDS011;16244;51.956;12.980;2023-04-24T14:31:39;2.70;;;0.70;;
29200;SDS011;16244;51.956;12.980;2023-04-24T14:34:09;1.37;;;0.60;;
29200;SDS011;16244;51.956;12.980;2023-04-24T14:36:37;0.80;;;0.80;;
29200;SDS011;16244;51.956;12.980;2023-04-24T14:39:04;2.00;;;1.37;;
29200;SDS011;16244;51.956;12.980;2023-04-24T14:41:32;2.10;;;1.17;;
29200;SDS011;16244;51.956;12.980;2023-04-24T14:44:01;1.73;;;1.63;;